Capitol Logistics 963

Operating for DHL



LEMD
Adolfo Suárez Madrid-Barajas International Airport
Madrid, ES
EDDK
Cologne Bonn Airport
Cologne, DE

Route Details

Aircraft Information
Group: European Fleet
Types: A30F,A31F,B738
Route Data
Demand: V
Distance: 767nm
Duration: 2h 45m
Recm'd Route: RBO UN867 DGO CNA VEKIN DENOV T861 ERUKI T856 DEPOK
Origin Wx: LEMD 270500Z 33007KT CAVOK 12/05 Q1022 NOSIG
Dest. Wx: EDDK 270450Z AUTO 27016KT 9999 BKN014 OVC019 14/11 Q1020 TEMPO 4000 RADZ
Notes:

Financial History
Total Freight: 141,078lbs
Average Load: 70,539lbs/flt
Fuel Used: 55,115lbs
Avg. Fuel Used: 27,558lbs/flt
Fuel Expense: $18,591
Avg. Fuel Expense: $9,295
Avg. Fuel Cost: $0.34/lbs
Total Gross Income: $287,940
Pilot Pay: $518
Total Expenses: $39,457
Total Revenue: $228,701
Average Revenue: $143,970.10